Weather at Lazy K Acres Airport [CLOSED]

Public forecast

Using degrees Fahrenheit for public forecast. Weather courtesy of forecast.io.

Closest aviation weather report (METAR) to Lazy K Acres Airport

Closest report is Dallas Fort Worth International Airport, 6.5 nm (12.0 km) ESE.

2024/06/14 15:53 (retrieved 48 minutes ago)

KDFW 141553Z 17006KT 10SM CLR 31/21 A2999 RMK AO2 SLP147 T03060206

Closest aviation forecast (TAF) to Lazy K Acres Airport

Closest forecast is Dallas Fort Worth International Airport, 6.5 nm (12.0 km) ESE.

2024/06/14 15:52 Ammendment (retrieved 49 minutes ago)

TAF AMD KDFW 141450Z 1415/1518 16008KT P6SM FEW250